Time;durP1;ratioP1;P1;durP2;ratioP2;P2;SDS_P1;SDS_P2;PMS_P1;PMS_P2;Temp;Humidity;BMP_temperature;BMP_pressure;BME280_temperature;BME280_humidity;BME280_pressure;Samples;Min_cycle;Max_cycle;Signal;HPM_P1;HPM_P2
2023/11/04 00:02:01;;;;;;;3.13;1.33;;;;;;;7.88;71.66;98201.44;5047327;28;20198;-74
2023/11/04 00:04:29;;;;;;;4.23;1.23;;;;;;;7.84;72.08;98194.72;5047593;28;20313;-74
2023/11/04 00:06:56;;;;;;;1.93;0.90;;;;;;;7.79;73.29;98184.53;5048630;28;20213;-75
2023/11/04 00:09:22;;;;;;;3.53;1.00;;;;;;;7.76;72.80;98191.91;5045011;28;20482;-74
2023/11/04 00:11:49;;;;;;;8.03;1.27;;;;;;;7.69;73.29;98191.66;5047620;28;20727;-74
2023/11/04 00:14:15;;;;;;;3.73;0.73;;;;;;;7.68;73.46;98194.44;5049156;28;20225;-72
2023/11/04 00:16:41;;;;;;;3.70;1.50;;;;;;;7.70;73.56;98192.50;5052468;28;20585;-74
2023/11/04 00:19:08;;;;;;;4.83;1.20;;;;;;;7.66;73.68;98192.78;5045036;28;20212;-73
2023/11/04 00:21:41;;;;;;;2.03;1.00;;;;;;;7.66;74.09;98184.81;5049045;28;20592;-74
2023/11/04 00:24:08;;;;;;;4.63;0.90;;;;;;;7.62;73.53;98187.88;5049367;28;20224;-73
2023/11/04 00:26:35;;;;;;;3.60;0.90;;;;;;;7.60;74.33;98179.22;5048600;28;20565;-74
2023/11/04 00:29:01;;;;;;;3.37;0.90;;;;;;;7.53;74.69;98181.59;5050996;28;20591;-72
2023/11/04 00:31:29;;;;;;;3.60;1.03;;;;;;;7.50;74.79;98171.28;5049820;28;20255;-74
2023/11/04 00:33:56;;;;;;;2.77;1.23;;;;;;;7.48;75.12;98178.53;5047179;28;20221;-74
2023/11/04 00:36:22;;;;;;;3.53;0.97;;;;;;;7.45;75.23;98172.66;5050280;28;20304;-73
2023/11/04 00:38:50;;;;;;;3.63;1.30;;;;;;;7.42;75.13;98173.78;5043787;28;20205;-74
2023/11/04 00:41:20;;;;;;;3.03;0.80;;;;;;;7.39;75.63;98179.34;5054563;28;20201;-74
2023/11/04 00:43:47;;;;;;;3.83;0.90;;;;;;;7.37;75.87;98180.44;5045469;28;20649;-73
2023/11/04 00:46:13;;;;;;;4.33;0.90;;;;;;;7.36;76.49;98190.22;5047717;28;20201;-74
2023/11/04 00:48:40;;;;;;;6.37;1.30;;;;;;;7.33;75.89;98179.91;5045700;28;20209;-74
2023/11/04 00:51:07;;;;;;;8.77;1.50;;;;;;;7.30;75.91;98173.06;5052024;28;20213;-74
2023/11/04 00:53:33;;;;;;;4.00;1.17;;;;;;;7.23;76.12;98173.75;5050965;28;20705;-74
2023/11/04 00:56:01;;;;;;;3.83;0.93;;;;;;;7.21;76.33;98171.22;5046029;28;20217;-74
2023/11/04 00:58:27;;;;;;;3.07;1.37;;;;;;;7.19;76.10;98165.22;5054008;28;20202;-73
2023/11/04 01:00:54;;;;;;;4.20;0.90;;;;;;;7.14;76.39;98174.56;5042902;28;20218;-73
2023/11/04 01:03:20;;;;;;;3.47;1.17;;;;;;;7.14;77.24;98169.28;5045682;28;20228;-74
2023/11/04 01:05:48;;;;;;;4.07;1.10;;;;;;;7.14;77.06;98171.94;5051513;28;20213;-74
2023/11/04 01:08:14;;;;;;;3.57;1.00;;;;;;;7.14;77.62;98172.78;5050234;28;20225;-74
2023/11/04 01:10:41;;;;;;;5.97;1.23;;;;;;;7.16;76.63;98177.94;5052340;28;20298;-73
2023/11/04 01:13:09;;;;;;;6.70;1.67;;;;;;;7.16;77.21;98172.63;5044350;28;20247;-73
2023/11/04 01:15:35;;;;;;;6.07;1.20;;;;;;;7.16;76.91;98175.28;5055808;28;20229;-74
2023/11/04 01:18:03;;;;;;;1.77;0.90;;;;;;;7.15;77.65;98173.59;5054671;28;20691;-73
2023/11/04 01:20:29;;;;;;;3.20;0.90;;;;;;;7.10;77.16;98175.81;5056835;28;20633;-74
2023/11/04 01:22:56;;;;;;;4.73;1.07;;;;;;;7.06;77.93;98169.94;5038432;28;20202;-74
2023/11/04 01:25:22;;;;;;;2.97;0.90;;;;;;;7.07;77.60;98174.28;5048926;28;20212;-73
2023/11/04 01:27:48;;;;;;;1.60;0.80;;;;;;;7.06;77.84;98169.13;5047322;28;20207;-74
2023/11/04 01:30:17;;;;;;;6.40;1.30;;;;;;;7.06;78.03;98161.16;5052947;28;20287;-73
2023/11/04 01:32:43;;;;;;;5.90;0.93;;;;;;;7.06;78.53;98162.00;5045317;28;20278;-73
2023/11/04 01:35:10;;;;;;;3.40;1.10;;;;;;;7.05;78.66;98149.75;5047020;28;20380;-73
2023/11/04 01:37:36;;;;;;;2.40;0.97;;;;;;;7.03;78.87;98153.50;5049487;28;20205;-73
2023/11/04 01:40:07;;;;;;;4.73;1.30;;;;;;;7.02;78.84;98151.81;5054840;28;20205;-73
2023/11/04 01:42:33;;;;;;;3.80;1.20;;;;;;;6.97;79.30;98146.97;5048211;28;20208;-73
2023/11/04 01:45:00;;;;;;;6.67;1.70;;;;;;;6.95;79.10;98148.91;5049497;28;20220;-73
2023/11/04 01:47:28;;;;;;;2.30;0.83;;;;;;;6.91;79.36;98142.19;5048033;28;20206;-73
2023/11/04 01:49:54;;;;;;;4.87;0.93;;;;;;;6.90;79.12;98145.81;5048165;28;20217;-73
2023/11/04 01:52:21;;;;;;;2.57;0.97;;;;;;;6.94;79.72;98134.00;5051985;28;20233;-73
2023/11/04 01:54:47;;;;;;;5.77;1.20;;;;;;;6.90;79.26;98141.34;5047246;28;20316;-73
2023/11/04 01:57:15;;;;;;;3.87;0.97;;;;;;;6.90;80.19;98140.53;5046529;28;20420;-73
2023/11/04 01:59:41;;;;;;;3.43;0.97;;;;;;;6.87;79.63;98140.78;5047248;28;20271;-73
2023/11/04 02:02:11;;;;;;;2.33;0.70;;;;;;;6.86;79.45;98142.59;5047049;28;20201;-73
2023/11/04 02:04:39;;;;;;;2.90;0.80;;;;;;;6.84;80.05;98141.88;5042456;28;20220;-73
2023/11/04 02:07:07;;;;;;;3.03;1.10;;;;;;;6.83;79.76;98136.72;5050277;28;20202;-73
2023/11/04 02:09:33;;;;;;;6.30;1.33;;;;;;;6.84;79.78;98133.13;5043408;28;20197;-73
2023/11/04 02:12:00;;;;;;;4.03;1.00;;;;;;;6.84;80.02;98136.59;5047232;28;20201;-74
2023/11/04 02:14:26;;;;;;;2.90;0.97;;;;;;;6.81;80.27;98134.22;5044136;28;20460;-73
2023/11/04 02:16:53;;;;;;;2.47;1.03;;;;;;;6.81;80.18;98126.28;5046044;28;20212;-74
2023/11/04 02:19:20;;;;;;;2.60;1.17;;;;;;;6.79;80.73;98128.25;5050112;28;20233;-73
2023/11/04 02:21:48;;;;;;;3.60;0.90;;;;;;;6.78;81.14;98131.88;5049842;28;20214;-74
2023/11/04 02:24:14;;;;;;;2.70;0.80;;;;;;;6.80;80.71;98126.44;5046244;28;20221;-73
2023/11/04 02:26:41;;;;;;;2.00;1.23;;;;;;;6.77;80.94;98132.00;5048257;28;20209;-73
2023/11/04 02:29:08;;;;;;;3.80;1.00;;;;;;;6.75;80.39;98140.06;5046508;28;20634;-74
2023/11/04 02:31:34;;;;;;;3.53;0.90;;;;;;;6.72;80.85;98134.19;5056143;28;20709;-74
2023/11/04 02:34:01;;;;;;;3.73;1.20;;;;;;;6.67;80.74;98131.94;5042531;28;20225;-74
2023/11/04 02:36:27;;;;;;;7.53;1.60;;;;;;;6.65;81.34;98127.75;5054267;28;20209;-74
2023/11/04 02:38:55;;;;;;;2.83;1.00;;;;;;;6.60;81.76;98129.03;5048745;28;20614;-74
2023/11/04 02:41:21;;;;;;;4.37;1.97;;;;;;;6.56;81.62;98121.47;5051224;28;20212;-74
2023/11/04 02:43:48;;;;;;;3.27;0.93;;;;;;;6.53;82.40;98130.50;5052977;28;20240;-73
2023/11/04 02:46:14;;;;;;;4.93;1.10;;;;;;;6.54;82.45;98126.06;5056127;28;20216;-73
2023/11/04 02:48:41;;;;;;;5.53;1.23;;;;;;;6.51;82.24;98127.16;5049790;28;20209;-74
2023/11/04 02:51:07;;;;;;;3.80;0.90;;;;;;;6.50;82.71;98128.13;5040616;28;20213;-73
2023/11/04 02:53:34;;;;;;;5.10;1.17;;;;;;;6.48;82.90;98139.81;5054700;28;20855;-73
2023/11/04 02:56:02;;;;;;;4.03;0.90;;;;;;;6.45;82.83;98140.09;5052654;28;20209;-74
2023/11/04 02:58:28;;;;;;;3.73;1.03;;;;;;;6.40;83.06;98143.13;5049636;28;20216;-74
2023/11/04 03:00:55;;;;;;;2.70;1.13;;;;;;;6.37;83.43;98142.53;5049683;28;20208;-74
2023/11/04 03:03:21;;;;;;;2.57;1.17;;;;;;;6.35;83.35;98147.97;5048260;28;20288;-74
2023/11/04 03:05:48;;;;;;;3.40;1.67;;;;;;;6.30;84.02;98144.03;5058946;28;20205;-74
2023/11/04 03:08:14;;;;;;;4.63;2.20;;;;;;;6.29;84.07;98140.56;5046130;28;20221;-74
2023/11/04 03:10:42;;;;;;;5.13;1.67;;;;;;;6.26;84.31;98140.84;5056852;28;20591;-74
2023/11/04 03:13:09;;;;;;;3.40;2.13;;;;;;;6.21;84.14;98138.59;5047346;28;20468;-74
2023/11/04 03:15:36;;;;;;;4.27;2.00;;;;;;;6.21;84.72;98133.28;5055556;28;20706;-74
2023/11/04 03:18:03;;;;;;;4.50;1.77;;;;;;;6.17;84.52;98134.50;5052472;28;20209;-73
2023/11/04 03:20:29;;;;;;;4.10;1.30;;;;;;;6.13;85.31;98138.38;5057944;28;20231;-74
2023/11/04 03:22:55;;;;;;;4.03;1.40;;;;;;;6.10;85.19;98140.44;5047699;28;20651;-74
2023/11/04 03:25:23;;;;;;;4.70;1.30;;;;;;;6.08;85.66;98123.91;5052686;28;20210;-75
2023/11/04 03:27:49;;;;;;;5.37;2.50;;;;;;;6.04;85.47;98128.59;5047049;28;20237;-75
2023/11/04 03:30:17;;;;;;;5.67;1.80;;;;;;;5.99;86.21;98130.78;5045730;28;20218;-73
2023/11/04 03:32:44;;;;;;;2.17;1.20;;;;;;;5.97;85.84;98127.44;5047254;28;20206;-74
2023/11/04 03:35:11;;;;;;;2.57;0.90;;;;;;;5.93;86.15;98118.09;5045216;28;20202;-74
2023/11/04 03:37:37;;;;;;;5.00;1.63;;;;;;;5.91;86.44;98117.41;5052326;28;20209;-75
2023/11/04 03:40:04;;;;;;;3.30;1.00;;;;;;;5.87;86.67;98122.06;5036237;28;20202;-74
2023/11/04 03:42:31;;;;;;;4.10;1.10;;;;;;;5.83;86.92;98118.00;5044718;28;20207;-74
2023/11/04 03:44:57;;;;;;;4.93;1.40;;;;;;;5.81;86.71;98113.81;5051506;28;20635;-75
2023/11/04 03:47:25;;;;;;;4.00;1.30;;;;;;;5.78;86.72;98108.78;5049743;28;20209;-74
2023/11/04 03:49:51;;;;;;;2.40;0.90;;;;;;;5.78;87.07;98108.78;5046278;28;20679;-75
2023/11/04 03:52:18;;;;;;;6.50;1.77;;;;;;;5.76;87.45;98105.44;5051135;28;20208;-74
2023/11/04 03:54:44;;;;;;;7.03;2.20;;;;;;;5.75;88.05;98109.88;5050405;28;20237;-74
2023/11/04 03:57:11;;;;;;;3.53;1.53;;;;;;;5.72;88.02;98101.41;5046498;28;20209;-74
2023/11/04 03:59:38;;;;;;;3.10;1.20;;;;;;;5.76;88.30;98100.16;5048824;28;20217;-75
2023/11/04 04:02:07;;;;;;;5.60;1.30;;;;;;;5.79;88.18;98097.25;5044279;28;20220;-74
2023/11/04 04:04:35;;;;;;;7.13;2.00;;;;;;;5.78;88.08;98085.03;5044211;28;20714;-74
2023/11/04 04:07:01;;;;;;;2.50;1.30;;;;;;;5.83;88.41;98085.47;5050695;28;20209;-74
2023/11/04 04:09:28;;;;;;;2.43;1.30;;;;;;;5.82;88.17;98086.44;5042171;28;20666;-75
2023/11/04 04:11:57;;;;;;;3.70;1.77;;;;;;;5.87;88.14;98076.34;5056865;28;20205;-74
2023/11/04 04:14:23;;;;;;;3.67;1.43;;;;;;;5.90;88.07;98079.59;5039777;28;20234;-74
2023/11/04 04:16:49;;;;;;;4.27;1.50;;;;;;;5.97;88.40;98077.25;5052694;28;20209;-74
2023/11/04 04:19:16;;;;;;;3.17;1.27;;;;;;;5.95;87.98;98071.25;5052428;28;20205;-74
2023/11/04 04:21:44;;;;;;;3.93;1.23;;;;;;;5.98;88.02;98071.00;5047582;28;20238;-74
2023/11/04 04:24:10;;;;;;;1.80;1.00;;;;;;;6.01;88.67;98064.63;5058788;28;20221;-74
2023/11/04 04:26:37;;;;;;;3.67;1.77;;;;;;;6.01;88.62;98072.53;5053926;28;20208;-75
2023/11/04 04:29:03;;;;;;;4.60;1.07;;;;;;;6.01;88.30;98068.09;5059366;28;20217;-74
2023/11/04 04:31:30;;;;;;;3.53;1.37;;;;;;;6.00;88.72;98065.59;5052096;28;20217;-74
2023/11/04 04:33:56;;;;;;;3.27;1.30;;;;;;;5.97;88.60;98071.97;5053537;28;20226;-75
2023/11/04 04:36:22;;;;;;;2.80;0.93;;;;;;;5.96;88.72;98074.72;5053746;28;20691;-74
2023/11/04 04:38:51;;;;;;;2.97;1.30;;;;;;;5.93;88.92;98070.53;5055555;28;20201;-73
2023/11/04 04:41:18;;;;;;;2.73;1.10;;;;;;;5.90;89.00;98071.66;5055765;28;20235;-74
2023/11/04 04:43:44;;;;;;;3.80;1.20;;;;;;;5.88;89.41;98067.44;5048669;28;20308;-72
2023/11/04 04:46:11;;;;;;;5.53;1.93;;;;;;;5.87;89.50;98056.03;5049376;28;20201;-74
2023/11/04 04:48:37;;;;;;;4.97;1.40;;;;;;;5.90;89.98;98054.97;5050549;28;20254;-75
2023/11/04 04:51:04;;;;;;;2.03;1.20;;;;;;;5.88;89.76;98055.09;5055152;28;20201;-74
2023/11/04 04:53:31;;;;;;;3.30;1.23;;;;;;;5.90;89.73;98054.97;5052717;28;20240;-75
2023/11/04 04:56:01;;;;;;;4.53;1.20;;;;;;;5.90;90.27;98052.34;5053293;28;20237;-74
2023/11/04 04:58:28;;;;;;;3.03;1.37;;;;;;;5.85;90.20;98050.06;5053107;28;20225;-75
2023/11/04 05:00:55;;;;;;;2.70;1.23;;;;;;;5.83;90.66;98045.88;5049379;28;20197;-74
2023/11/04 05:03:21;;;;;;;2.80;1.50;;;;;;;5.83;90.17;98045.88;5048280;28;20228;-72
2023/11/04 05:05:48;;;;;;;4.13;1.43;;;;;;;5.82;90.38;98039.75;5051278;28;20673;-74
2023/11/04 05:08:14;;;;;;;4.83;2.10;;;;;;;5.82;90.50;98044.19;5056030;28;20210;-74
2023/11/04 05:10:41;;;;;;;3.40;1.60;;;;;;;5.77;90.71;98044.56;5052674;28;20231;-74
2023/11/04 05:13:09;;;;;;;3.23;1.60;;;;;;;5.78;91.10;98045.41;5053303;28;20240;-74
2023/11/04 05:15:35;;;;;;;3.30;1.53;;;;;;;5.76;90.77;98034.97;5047103;28;20212;-74
2023/11/04 05:18:02;;;;;;;3.80;2.13;;;;;;;5.72;91.36;98038.88;5049623;28;20214;-74
2023/11/04 05:20:29;;;;;;;4.87;1.70;;;;;;;5.71;91.66;98037.19;5054506;28;20205;-74
2023/11/04 05:22:57;;;;;;;3.93;1.53;;;;;;;5.71;91.34;98039.84;5048674;28;20285;-74
2023/11/04 05:25:24;;;;;;;5.23;2.30;;;;;;;5.72;91.46;98038.88;5047641;28;20229;-74
2023/11/04 05:27:51;;;;;;;4.63;2.10;;;;;;;5.74;92.15;98042.19;5048182;28;20344;-74
2023/11/04 05:30:20;;;;;;;4.60;3.17;;;;;;;5.72;91.98;98040.66;5051087;28;20210;-74
2023/11/04 05:32:46;;;;;;;3.10;2.17;;;;;;;5.80;92.24;98035.56;5055120;28;20631;-74
2023/11/04 05:35:12;;;;;;;2.50;1.37;;;;;;;5.85;91.99;98036.00;5049437;28;20745;-74
2023/11/04 05:37:39;;;;;;;1.90;1.40;;;;;;;5.86;91.55;98040.31;5053009;28;20209;-73
2023/11/04 05:40:07;;;;;;;2.70;1.40;;;;;;;5.87;92.03;98023.50;5043514;28;20209;-74
2023/11/04 05:42:34;;;;;;;2.97;1.27;;;;;;;5.91;91.77;98024.97;5051842;28;20232;-74
2023/11/04 05:45:00;;;;;;;2.73;1.20;;;;;;;5.98;91.47;98033.16;5054090;28;20225;-74
2023/11/04 05:47:28;;;;;;;2.17;1.00;;;;;;;6.02;91.62;98026.66;5044569;28;20592;-73
2023/11/04 05:49:55;;;;;;;1.33;1.00;;;;;;;6.05;91.23;98032.53;5056602;28;20217;-74
2023/11/04 05:52:22;;;;;;;2.10;1.20;;;;;;;6.09;90.63;98028.63;5048251;28;20665;-74
2023/11/04 05:54:48;;;;;;;7.03;1.80;;;;;;;6.10;90.56;98038.22;5053530;28;20232;-73
2023/11/04 05:57:16;;;;;;;1.67;1.00;;;;;;;6.13;90.39;98045.88;5053519;28;20222;-74
2023/11/04 05:59:43;;;;;;;3.67;0.87;;;;;;;6.18;90.34;98038.41;5055152;28;20300;-73
2023/11/04 06:02:09;;;;;;;2.87;1.13;;;;;;;6.20;89.93;98028.53;5053834;28;20212;-74
2023/11/04 06:04:37;;;;;;;2.47;1.10;;;;;;;6.23;89.50;98032.72;5049931;28;20218;-74
2023/11/04 06:07:04;;;;;;;1.37;1.10;;;;;;;6.22;89.30;98031.06;5056725;28;20213;-74
2023/11/04 06:09:32;;;;;;;2.10;1.00;;;;;;;6.21;89.24;98030.22;5047700;28;20216;-74
2023/11/04 06:11:59;;;;;;;3.10;1.20;;;;;;;6.31;88.89;98026.75;5052241;28;20681;-72
2023/11/04 06:14:26;;;;;;;1.37;1.00;;;;;;;6.32;88.95;98026.63;5045703;28;20689;-72
2023/11/04 06:16:52;;;;;;;2.30;1.07;;;;;;;6.31;89.23;98022.31;5051359;28;20293;-74
2023/11/04 06:19:19;;;;;;;5.43;1.17;;;;;;;6.38;88.94;98017.34;5056968;28;20197;-73
2023/11/04 06:21:47;;;;;;;3.10;1.07;;;;;;;6.42;87.98;98016.09;5056023;28;22407;-73
2023/11/04 06:24:13;;;;;;;0.80;0.70;;;;;;;6.44;88.02;98011.50;5053939;28;20723;-73
2023/11/04 06:26:40;;;;;;;1.90;1.07;;;;;;;6.46;87.54;98020.13;5047631;28;20219;-73
2023/11/04 06:29:06;;;;;;;3.43;1.10;;;;;;;6.46;87.39;98004.25;5054263;28;20213;-74
2023/11/04 06:31:32;;;;;;;3.70;1.10;;;;;;;6.49;87.61;98009.28;5042054;28;20213;-74
2023/11/04 06:33:59;;;;;;;1.77;0.90;;;;;;;6.53;87.62;98013.34;5053411;28;20707;-74
2023/11/04 06:36:32;;;;;;;2.17;0.80;;;;;;;6.56;87.80;98010.41;5046746;28;20205;-74
2023/11/04 06:39:00;;;;;;;1.97;0.83;;;;;;;6.58;87.90;98008.47;5049052;28;20232;-74
2023/11/04 06:41:26;;;;;;;2.07;1.00;;;;;;;6.60;87.06;98010.03;5048072;28;20202;-73
2023/11/04 06:43:54;;;;;;;2.80;1.00;;;;;;;6.63;87.74;98006.25;5049596;28;20214;-73
2023/11/04 06:46:20;;;;;;;1.83;1.13;;;;;;;6.60;86.98;98010.03;5051796;28;20259;-74
2023/11/04 06:48:47;;;;;;;2.73;1.10;;;;;;;6.65;86.92;98009.59;5050584;28;20216;-73
2023/11/04 06:51:18;;;;;;;3.00;1.70;;;;;;;6.65;87.50;98009.59;5053482;28;20205;-74
2023/11/04 06:53:44;;;;;;;1.47;1.20;;;;;;;6.66;87.57;97995.38;5048650;28;20256;-73
2023/11/04 06:56:13;;;;;;;2.70;1.17;;;;;;;6.70;87.50;97996.78;5053077;28;20209;-74
2023/11/04 06:58:40;;;;;;;1.90;0.93;;;;;;;6.71;87.48;97995.00;5053770;28;20303;-74
2023/11/04 07:01:07;;;;;;;2.53;1.73;;;;;;;6.73;87.81;98004.47;5048031;28;20201;-74
2023/11/04 07:03:34;;;;;;;1.50;0.90;;;;;;;6.77;87.59;98003.22;5051675;28;20718;-74
2023/11/04 07:06:01;;;;;;;1.53;1.00;;;;;;;6.89;86.53;97993.34;5049009;28;20205;-73
2023/11/04 07:08:27;;;;;;;1.43;1.00;;;;;;;6.96;86.77;97989.16;5047568;28;20215;-74
2023/11/04 07:10:54;;;;;;;1.77;1.27;;;;;;;6.99;86.13;97996.81;5049927;28;20201;-74
2023/11/04 07:13:22;;;;;;;1.90;0.93;;;;;;;7.04;85.82;97986.63;5046022;28;21037;-73
2023/11/04 07:15:48;;;;;;;1.10;0.70;;;;;;;7.08;85.25;97989.84;5052549;28;20236;-75
2023/11/04 07:18:17;;;;;;;1.63;0.87;;;;;;;7.10;85.17;97986.09;5043952;28;20215;-74
2023/11/04 07:20:44;;;;;;;2.60;1.07;;;;;;;7.16;85.26;97984.72;5048755;28;20209;-74
2023/11/04 07:23:11;;;;;;;2.77;0.93;;;;;;;7.17;85.16;97981.88;5044988;28;20315;-74
2023/11/04 07:25:38;;;;;;;1.83;0.90;;;;;;;7.18;84.92;97985.38;5045135;28;20676;-73
2023/11/04 07:28:04;;;;;;;1.83;1.27;;;;;;;7.21;85.11;97990.38;5048435;28;20222;-74
2023/11/04 07:30:33;;;;;;;2.90;1.20;;;;;;;7.23;85.47;97983.97;5042882;28;20216;-72
2023/11/04 07:33:00;;;;;;;2.90;1.20;;;;;;;7.30;84.40;97982.47;5050652;28;20208;-74
2023/11/04 07:35:26;;;;;;;2.73;1.00;;;;;;;7.37;84.23;97982.72;5044057;28;20681;-74
2023/11/04 07:37:53;;;;;;;2.07;1.30;;;;;;;7.38;83.56;97975.59;5049462;28;20202;-73
2023/11/04 07:40:20;;;;;;;1.53;1.27;;;;;;;7.39;84.04;97974.63;5047435;28;20198;-74
2023/11/04 07:42:47;;;;;;;1.63;1.07;;;;;;;7.37;83.44;97974.75;5048312;28;20234;-73
2023/11/04 07:45:13;;;;;;;0.83;0.77;;;;;;;7.47;83.26;97970.31;5042214;28;20379;-74
2023/11/04 07:47:42;;;;;;;1.30;1.20;;;;;;;7.54;82.94;97968.72;5051174;28;20744;-73
2023/11/04 07:50:10;;;;;;;2.23;1.97;;;;;;;7.57;83.00;97964.97;5045505;28;20209;-74
2023/11/04 07:52:36;;;;;;;1.97;1.40;;;;;;;7.55;82.83;97958.97;5050627;28;20278;-74
2023/11/04 07:55:06;;;;;;;1.90;1.23;;;;;;;7.57;82.94;97968.44;5056198;28;20229;-74
2023/11/04 07:57:32;;;;;;;2.17;1.20;;;;;;;7.59;82.87;97957.72;5051033;28;20205;-72
2023/11/04 08:00:02;;;;;;;2.67;1.80;;;;;;;7.68;82.25;97953.38;5043556;28;20603;-74
2023/11/04 08:02:29;;;;;;;1.97;1.00;;;;;;;7.73;82.11;97959.06;5054523;28;20209;-74
2023/11/04 08:04:58;;;;;;;1.90;1.50;;;;;;;7.72;82.33;97944.13;5052965;28;20214;-74
2023/11/04 08:07:24;;;;;;;1.57;1.07;;;;;;;7.75;82.07;97947.34;5051056;28;20585;-74
2023/11/04 08:09:51;;;;;;;1.93;0.90;;;;;;;7.80;81.56;97937.16;5054461;28;20205;-74
2023/11/04 08:12:17;;;;;;;2.23;1.00;;;;;;;7.83;81.96;97938.69;5048782;28;20198;-74
2023/11/04 08:14:44;;;;;;;3.43;1.43;;;;;;;7.86;81.29;97938.38;5058329;28;20236;-74
2023/11/04 08:17:10;;;;;;;1.27;1.07;;;;;;;7.89;81.68;97936.25;5046606;28;20206;-74
2023/11/04 08:19:37;;;;;;;4.60;1.20;;;;;;;7.98;81.95;97926.59;5056937;28;20715;-74
2023/11/04 08:22:05;;;;;;;1.67;1.10;;;;;;;8.06;81.70;97923.25;5054546;28;20300;-74
2023/11/04 08:24:32;;;;;;;3.33;1.03;;;;;;;8.15;81.28;97923.16;5059075;28;20225;-74
2023/11/04 08:26:58;;;;;;;4.77;1.10;;;;;;;8.22;80.36;97924.25;5049439;28;20202;-74
2023/11/04 08:29:25;;;;;;;1.97;1.10;;;;;;;8.28;80.61;97921.00;5047811;28;20672;-75
2023/11/04 08:31:51;;;;;;;1.40;1.00;;;;;;;8.35;79.77;97924.75;5051809;28;20237;-74
2023/11/04 08:34:18;;;;;;;2.20;1.03;;;;;;;8.49;79.46;97914.59;5051338;28;20228;-73
2023/11/04 08:36:44;;;;;;;1.10;0.67;;;;;;;8.60;78.88;97917.03;5055949;28;20307;-74
2023/11/04 08:39:12;;;;;;;1.40;0.70;;;;;;;8.70;78.36;97912.50;5050369;28;20205;-74
2023/11/04 08:41:39;;;;;;;2.13;1.00;;;;;;;8.77;78.46;97916.22;5047387;28;20217;-74
2023/11/04 08:44:05;;;;;;;1.13;0.97;;;;;;;8.90;77.81;97908.69;5051173;28;20232;-74
2023/11/04 08:46:32;;;;;;;2.70;0.70;;;;;;;8.98;77.27;97905.25;5055063;28;20481;-75
2023/11/04 08:48:58;;;;;;;1.03;0.93;;;;;;;9.04;77.75;97909.97;5051641;28;20206;-74
2023/11/04 08:51:25;;;;;;;0.80;0.80;;;;;;;9.05;77.17;97911.63;5047811;28;20202;-74
2023/11/04 08:53:51;;;;;;;1.50;1.00;;;;;;;9.04;77.33;97916.09;5058361;28;20243;-74
2023/11/04 08:56:19;;;;;;;0.80;0.70;;;;;;;9.05;76.59;97906.31;5054883;28;20451;-74
2023/11/04 08:58:46;;;;;;;2.70;0.70;;;;;;;9.03;77.07;97909.13;5040702;28;20344;-74
2023/11/04 09:01:12;;;;;;;1.33;0.73;;;;;;;9.00;77.29;97908.59;5048769;28;20675;-74
2023/11/04 09:03:39;;;;;;;0.90;0.80;;;;;;;8.99;78.17;97904.28;5049660;28;20252;-74
2023/11/04 09:06:06;;;;;;;1.10;0.80;;;;;;;8.99;77.66;97915.72;5055969;28;20578;-74
2023/11/04 09:08:33;;;;;;;1.87;0.70;;;;;;;9.01;77.99;97916.41;5043435;28;20201;-73
2023/11/04 09:10:59;;;;;;;3.57;1.77;;;;;;;8.99;78.16;97918.38;5048635;28;20205;-74
2023/11/04 09:13:27;;;;;;;2.70;1.60;;;;;;;8.96;78.41;97913.38;5056945;28;20617;-74
2023/11/04 09:15:54;;;;;;;2.63;1.20;;;;;;;8.94;78.74;97904.75;5047808;28;20322;-74
2023/11/04 09:18:20;;;;;;;5.67;3.47;;;;;;;8.96;78.50;97901.91;5054012;28;20233;-73
2023/11/04 09:20:47;;;;;;;6.53;2.87;;;;;;;8.94;79.24;97893.31;5039824;28;20209;-74
2023/11/04 09:23:13;;;;;;;5.70;3.53;;;;;;;8.96;78.90;97888.66;5044645;28;20228;-74
2023/11/04 09:25:40;;;;;;;3.77;2.77;;;;;;;8.94;78.86;97896.78;5045089;28;20210;-73
2023/11/04 09:28:06;;;;;;;1.97;1.53;;;;;;;8.93;79.12;97892.47;5042800;28;20244;-75
2023/11/04 09:30:34;;;;;;;1.00;0.90;;;;;;;8.97;78.88;97885.84;5041134;28;20207;-75
2023/11/04 09:33:00;;;;;;;1.83;1.20;;;;;;;8.97;78.73;97892.97;5055297;28;20208;-73
2023/11/04 09:35:27;;;;;;;5.17;2.83;;;;;;;8.96;79.89;97892.13;5048441;28;20222;-73
2023/11/04 09:37:54;;;;;;;2.80;1.47;;;;;;;8.98;80.49;97906.09;5046318;28;20209;-74
2023/11/04 09:40:20;;;;;;;3.90;1.13;;;;;;;9.04;79.77;97896.69;5054560;28;20202;-74
2023/11/04 09:42:47;;;;;;;2.40;1.30;;;;;;;9.11;79.32;97899.56;5050907;28;20212;-73
2023/11/04 09:45:18;;;;;;;2.43;1.40;;;;;;;9.11;79.61;97899.56;5049752;28;20201;-74
2023/11/04 09:47:46;;;;;;;1.53;0.90;;;;;;;9.16;78.69;97886.63;5046176;28;20206;-73
2023/11/04 09:50:12;;;;;;;2.60;1.43;;;;;;;9.21;78.99;97879.06;5053075;28;20204;-74
2023/11/04 09:52:41;;;;;;;4.10;2.17;;;;;;;9.23;78.87;97872.59;5047976;28;20217;-72
2023/11/04 09:55:10;;;;;;;8.30;3.70;;;;;;;9.28;78.38;97872.97;5052868;28;20235;-74
2023/11/04 09:57:37;;;;;;;3.50;1.30;;;;;;;9.29;78.57;97863.19;5045201;28;20219;-73
2023/11/04 10:00:06;;;;;;;6.93;3.63;;;;;;;9.30;78.98;97848.91;5049357;28;20267;-75
2023/11/04 10:02:33;;;;;;;4.20;2.70;;;;;;;9.36;79.66;97850.91;5050194;28;20214;-76
2023/11/04 10:05:01;;;;;;;4.83;2.50;;;;;;;9.41;78.64;97840.66;5046308;28;20225;-76
2023/11/04 10:07:27;;;;;;;4.50;2.17;;;;;;;9.46;78.93;97850.81;5046622;28;20198;-75
2023/11/04 10:09:54;;;;;;;2.17;0.93;;;;;;;9.50;78.28;97857.47;5042733;28;20206;-75
2023/11/04 10:12:21;;;;;;;3.50;1.87;;;;;;;9.50;78.54;97846.84;5052906;28;20206;-75
2023/11/04 10:14:48;;;;;;;4.37;1.90;;;;;;;9.51;78.12;97852.00;5049059;28;20261;-75
2023/11/04 10:17:14;;;;;;;5.27;2.60;;;;;;;9.57;78.13;97850.53;5044481;28;20583;-75
2023/11/04 10:19:41;;;;;;;4.37;2.03;;;;;;;9.60;77.72;97845.75;5047180;28;20241;-74
2023/11/04 10:22:10;;;;;;;8.13;2.73;;;;;;;9.63;77.56;97841.94;5042666;28;20221;-75
2023/11/04 10:24:37;;;;;;;2.83;1.20;;;;;;;9.63;77.57;97837.47;5042046;23;20235;-85
2023/11/04 10:27:04;;;;;;;4.57;1.97;;;;;;;9.64;77.77;97835.63;5009777;28;20707;-85
2023/11/04 10:29:33;;;;;;;7.60;3.87;;;;;;;9.65;77.60;97835.47;5017217;28;20326;-84
2023/11/04 10:32:04;;;;;;;4.57;1.97;;;;;;;9.70;77.65;97838.47;5013395;28;20210;-85
2023/11/04 10:34:33;;;;;;;1.93;0.80;;;;;;;9.79;77.24;97839.34;5009182;28;20203;-85
2023/11/04 10:37:03;;;;;;;4.63;2.00;;;;;;;9.88;77.10;97832.22;5011943;28;20226;-85
2023/11/04 10:39:31;;;;;;;2.17;1.00;;;;;;;9.98;76.32;97819.63;5010699;28;20215;-85
2023/11/04 10:42:05;;;;;;;1.70;0.80;;;;;;;10.08;75.09;97809.66;5007995;28;20218;-85
2023/11/04 10:44:34;;;;;;;2.97;1.40;;;;;;;10.11;74.89;97820.00;5008195;28;20230;-85
2023/11/04 10:47:12;;;;;;;2.57;1.57;;;;;;;10.16;75.08;97816.84;5011306;28;20195;-84
2023/11/04 10:49:51;;;;;;;2.37;0.90;;;;;;;10.22;74.75;97814.38;5012325;28;20222;-84
2023/11/04 10:52:22;;;;;;;0.80;0.63;;;;;;;10.28;74.34;97796.94;5013144;28;20259;-84
2023/11/04 10:54:56;;;;;;;0.73;0.63;;;;;;;10.33;73.49;97792.81;5009992;28;20634;-84
2023/11/04 10:57:31;;;;;;;0.63;0.43;;;;;;;10.37;73.79;97793.31;5008881;28;20577;-84
2023/11/04 11:00:09;;;;;;;1.57;0.80;;;;;;;10.37;72.73;97788.00;5013149;28;20203;-84
2023/11/04 11:02:37;;;;;;;0.93;0.40;;;;;;;10.38;71.96;97782.50;5008471;28;20241;-82
2023/11/04 11:05:05;;;;;;;0.53;0.43;;;;;;;10.41;72.26;97779.47;5011721;28;20590;-80
2023/11/04 11:07:31;;;;;;;0.73;0.50;;;;;;;10.42;72.11;97775.81;5014191;28;20210;-85
2023/11/04 11:10:00;;;;;;;0.93;0.40;;;;;;;10.40;72.62;97772.50;5010945;28;20211;-84
2023/11/04 11:12:32;;;;;;;1.47;0.60;;;;;;;10.43;72.53;97776.66;5010818;28;20211;-85
2023/11/04 11:14:59;;;;;;;0.60;0.40;;;;;;;10.44;71.91;97770.34;5012986;28;20206;-85
2023/11/04 11:17:31;;;;;;;1.33;0.63;;;;;;;10.46;72.61;97779.00;5007270;28;20212;-85
2023/11/04 11:19:58;;;;;;;1.30;0.50;;;;;;;10.47;71.95;97775.34;5003760;28;20288;-85
2023/11/04 11:22:26;;;;;;;0.83;0.70;;;;;;;10.46;71.34;97771.00;5016717;28;20198;-84
2023/11/04 11:24:55;;;;;;;1.47;0.40;;;;;;;10.44;70.93;97760.53;5008033;28;20230;-85
2023/11/04 11:27:23;;;;;;;1.40;0.40;;;;;;;10.46;71.75;97760.38;5007786;28;20207;-84
2023/11/04 11:29:52;;;;;;;3.53;2.00;;;;;;;10.46;72.25;97754.22;5012052;28;20229;-84
2023/11/04 11:32:20;;;;;;;0.60;0.40;;;;;;;10.51;71.94;97757.22;5013491;28;20286;-86
2023/11/04 11:34:51;;;;;;;1.30;0.50;;;;;;;10.52;70.56;97741.09;5015254;28;20207;-85
2023/11/04 11:37:19;;;;;;;1.10;0.40;;;;;;;10.56;70.92;97738.94;5009440;28;20223;-85
2023/11/04 11:39:45;;;;;;;0.30;0.30;;;;;;;10.56;70.63;97729.13;5008061;28;20371;-84
2023/11/04 11:42:12;;;;;;;0.33;0.33;;;;;;;10.54;71.45;97727.63;5008443;28;20206;-85